Time;durP1;ratioP1;P1;durP2;ratioP2;P2;SDS_P1;SDS_P2;PMS_P1;PMS_P2;Temp;Humidity;BMP_temperature;BMP_pressure;BME280_temperature;BME280_humidity;BME280_pressure;Samples;Min_cycle;Max_cycle;Signal;HPM_P1;HPM_P2
2023/01/11 00:01:31;;;;;;;29.85;16.88;;;;;;;;;;4899601;29;20572;-77
2023/01/11 00:03:57;;;;;;;26.90;15.75;;;;;;;;;;4884237;29;20100;-78
2023/01/11 00:06:23;;;;;;;27.83;15.63;;;;;;;;;;4899674;29;20079;-77
2023/01/11 00:08:49;;;;;;;31.05;17.48;;;;;;;;;;4899698;29;20036;-77
2023/01/11 00:11:17;;;;;;;29.00;14.73;;;9.00;99.90;;;;;;4900012;29;20048;-77
2023/01/11 00:13:44;;;;;;;27.58;15.10;;;;;;;;;;4902627;29;20040;-77
2023/01/11 00:16:10;;;;;;;29.10;14.65;;;;;;;;;;4903487;29;20091;-77
2023/01/11 00:18:36;;;;;;;29.92;16.17;;;;;;;;;;4903495;29;20044;-77
2023/01/11 00:21:06;;;;;;;29.20;14.55;;;;;;;;;;4903471;29;20059;-77
2023/01/11 00:23:36;;;;;;;29.42;15.02;;;;;;;;;;4887421;29;20054;-77
2023/01/11 00:26:03;;;;;;;32.22;16.55;;;9.00;99.90;;;;;;4903096;29;20382;-77
2023/01/11 00:28:29;;;;;;;30.95;15.88;;;;;;;;;;4884930;29;20558;-77
2023/01/11 00:30:56;;;;;;;29.15;15.68;;;;;;;;;;4899799;29;20048;-77
2023/01/11 00:33:22;;;;;;;30.60;15.48;;;;;;;;;;4868570;29;20036;-72
2023/01/11 00:35:51;;;;;;;27.58;14.88;;;9.10;99.90;;;;;;4869029;29;20083;-72
2023/01/11 00:38:42;;;;;;;28.63;14.40;;;;;;;;;;4868553;29;20397;-72
2023/01/11 00:49:18;;;;;;;22.50;12.35;;;;;;;;;;4884056;29;20044;-72
2023/01/11 00:51:44;;;;;;;22.48;12.43;;;;;;;;;;4899307;29;20036;-72
2023/01/11 00:54:10;;;;;;;22.02;12.40;;;;;;;;;;4899703;29;20112;-71
2023/01/11 00:56:36;;;;;;;20.58;11.30;;;;;;;;;;4868512;29;20135;-72
2023/01/11 00:59:03;;;;;;;18.30;10.82;;;;;;;;;;4899376;29;20060;-71
2023/01/11 01:01:29;;;;;;;21.65;11.55;;;;;;;;;;4899239;29;20056;-71
2023/01/11 01:03:55;;;;;;;24.90;12.38;;;;;;;;;;4879135;29;20409;-71
2023/01/11 01:06:21;;;;;;;22.17;11.48;;;;;;;;;;4901377;29;20051;-72
2023/01/11 01:08:48;;;;;;;19.25;11.63;;;;;;;;;;4901161;29;20040;-72
2023/01/11 01:11:14;;;;;;;23.02;12.07;;;;;;;;;;4886387;29;20047;-72
2023/01/11 01:16:24;;;;;;;20.02;11.18;;;;;;;;;;4902080;29;20496;-72
2023/01/11 01:18:52;;;;;;;23.88;11.70;;;;;;;;;;4902016;29;20416;-72
2023/01/11 01:21:18;;;;;;;22.02;11.57;;;;;;;;;;4902034;29;20095;-77
2023/01/11 01:23:44;;;;;;;23.88;11.95;;;;;;;;;;4901128;29;20055;-77
2023/01/11 01:26:10;;;;;;;24.67;12.98;;;;;;;;;;4886306;29;20048;-77
2023/01/11 01:28:36;;;;;;;23.05;12.02;;;;;;;;;;4902128;29;20117;-77
2023/01/11 01:31:03;;;;;;;23.35;12.55;;;;;;;;;;4901858;29;20115;-77
2023/01/11 01:33:29;;;;;;;22.48;11.70;;;;;;;;;;4886699;29;20074;-77
2023/01/11 01:35:55;;;;;;;26.70;12.38;;;;;;;;;;4886494;29;20039;-77
2023/01/11 01:38:21;;;;;;;26.17;12.63;;;;;;;;;;4902078;29;20044;-77
2023/01/11 01:40:48;;;;;;;29.10;13.48;;;;;;;;;;4886247;29;20055;-76
2023/01/11 01:43:15;;;;;;;32.72;12.15;;;;;;;;;;4901521;29;20055;-76
2023/01/11 01:45:42;;;;;;;27.73;13.27;;;;;;;;;;4901825;29;20062;-77
2023/01/11 01:48:17;;;;;;;26.15;13.50;;;;;;;;;;4901633;29;20119;-76
2023/01/11 01:50:43;;;;;;;33.10;13.90;;;;;;;;;;4901771;29;20115;-77
2023/01/11 01:53:43;;;;;;;33.97;14.60;;;9.70;99.90;;;;;;4901584;29;20054;-77
2023/01/11 01:56:26;;;;;;;33.00;14.02;;;9.90;99.90;;;;;;4889067;29;20059;-77
2023/01/11 01:59:00;;;;;;;33.90;14.48;;;9.80;99.90;;;;;;4902142;29;20511;-77
2023/01/11 02:04:35;;;;;;;35.97;14.85;;;9.80;99.90;;;;;;4901595;29;20044;-78
2023/01/11 02:07:01;;;;;;;32.65;13.98;;;;;;;;;;4901267;29;20044;-78
2023/01/11 02:09:34;;;;;;;34.17;14.43;;;10.00;99.90;;;;;;4901224;29;20052;-77
2023/01/11 02:12:00;;;;;;;43.83;16.17;;;;;;;;;;4901442;29;20397;-78
2023/01/11 02:14:28;;;;;;;33.80;13.73;;;9.70;99.90;;;;;;4901098;29;20104;-77
2023/01/11 02:16:54;;;;;;;34.78;13.90;;;;;;;;;;4885390;29;20052;-78
2023/01/11 02:19:27;;;;;;;35.53;14.15;;;;;;;;;;4901018;29;20091;-78
2023/01/11 02:22:02;;;;;;;30.40;13.35;;;;;;;;;;4901455;29;20051;-78
2023/01/11 02:24:28;;;;;;;38.25;14.35;;;;;;;;;;4901100;29;20048;-77
2023/01/11 02:27:25;;;;;;;31.40;13.65;;;9.90;99.90;;;;;;4900870;29;20075;-77
2023/01/11 02:29:59;;;;;;;30.92;13.07;;;;;;;;;;4885565;29;20048;-77
2023/01/11 02:32:31;;;;;;;37.17;14.50;;;;;;;;;;4917691;29;20036;-77
2023/01/11 02:35:34;;;;;;;32.87;13.67;;;10.10;99.90;;;;;;4900653;29;20438;-77
2023/01/11 02:38:12;;;;;;;41.63;13.68;;;10.10;99.90;;;;;;4916698;29;20446;-77
2023/01/11 02:40:41;;;;;;;43.22;12.20;;;;;;;;;;4885214;29;20481;-77
2023/01/11 02:46:06;;;;;;;47.60;10.90;;;;;;;;;;4901207;29;20612;-77
2023/01/11 02:48:58;;;;;;;37.03;8.15;;;;;;;;;;4902061;29;20040;-77
2023/01/11 02:51:28;;;;;;;44.20;9.32;;;;;;;;;;4900768;29;20046;-77
2023/01/11 02:54:17;;;;;;;43.45;7.80;;;10.30;99.90;;;;;;4900364;29;20058;-78
2023/01/11 02:56:45;;;;;;;36.65;7.70;;;;;;;;;;4900899;29;20048;-77
2023/01/11 02:59:12;;;;;;;47.30;6.70;;;;;;;;;;4901019;29;20052;-77
2023/01/11 03:02:04;;;;;;;51.58;7.35;;;10.10;99.90;;;;;;4900307;29;20048;-77
2023/01/11 03:04:33;;;;;;;60.00;7.70;;;10.30;99.90;;;;;;4896184;29;20066;-77
2023/01/11 03:07:17;;;;;;;50.50;6.55;;;10.30;99.90;;;;;;4901396;29;20493;-77
2023/01/11 03:10:01;;;;;;;47.45;7.30;;;10.20;99.90;;;;;;4900237;29;20449;-77
2023/01/11 03:12:55;;;;;;;59.72;8.73;;;;;;;;;;4900049;29;20091;-77
2023/01/11 03:15:22;;;;;;;55.35;6.45;;;;;;;;;;4900140;29;20497;-78
2023/01/11 03:18:07;;;;;;;36.92;6.07;;;;;;;;;;4884449;29;20519;-77
2023/01/11 03:20:49;;;;;;;63.13;6.38;;;10.40;99.90;;;;;;4900040;29;20505;-77
2023/01/11 03:23:20;;;;;;;54.72;6.65;;;;;;;;;;4900176;29;20048;-77
2023/01/11 03:26:05;;;;;;;61.33;6.65;;;;;;;;;;4900340;29;20155;-77
2023/01/11 03:28:43;;;;;;;82.75;7.90;;;10.30;99.90;;;;;;4881714;29;20063;-71
2023/01/11 03:31:22;;;;;;;48.38;7.10;;;;;;;;;;4881422;29;20131;-71
2023/01/11 03:34:16;;;;;;;73.13;6.80;;;10.40;99.90;;;;;;4881326;29;20087;-71
2023/01/11 03:36:46;;;;;;;93.72;8.18;;;;;;;;;;4881514;29;20139;-77
2023/01/11 03:39:35;;;;;;;60.30;5.53;;;;;;;;;;4865804;29;20127;-78
2023/01/11 03:42:03;;;;;;;47.53;5.40;;;;;;;;;;4869300;29;20080;-78
2023/01/11 03:44:36;;;;;;;40.60;7.47;;;10.50;99.90;;;;;;4881188;29;20046;-77
2023/01/11 03:47:05;;;;;;;44.30;5.28;;;;;;;;;;4866124;29;20083;-77
2023/01/11 03:49:35;;;;;;;56.30;7.32;;;;;;;;;;4885015;29;20041;-77
2023/01/11 03:52:02;;;;;;;54.92;6.22;;;10.40;99.90;;;;;;4884883;29;20406;-77
2023/01/11 03:54:30;;;;;;;46.28;5.90;;;10.30;99.90;;;;;;4884859;29;20036;-77
2023/01/11 03:57:04;;;;;;;44.50;6.97;;;;;;;;;;4884852;29;20044;-77
2023/01/11 03:59:30;;;;;;;47.97;7.00;;;;;;;;;;4885106;29;20115;-72
2023/01/11 04:01:56;;;;;;;53.35;5.60;;;;;;;;;;4884612;29;20045;-72
2023/01/11 04:04:23;;;;;;;58.58;6.45;;;10.30;99.90;;;;;;4884642;29;20048;-72
2023/01/11 04:06:49;;;;;;;54.33;6.18;;;;;;;;;;4884431;29;20410;-72
2023/01/11 04:09:15;;;;;;;71.43;7.05;;;;;;;;;;4884351;29;20064;-72
2023/01/11 04:11:41;;;;;;;67.78;7.13;;;;;;;;;;4884472;29;20080;-72
2023/01/11 04:14:07;;;;;;;91.80;10.10;;;;;;;;;;4884600;29;20482;-71
2023/01/11 04:16:33;;;;;;;75.28;8.55;;;;;;;;;;4884821;29;20096;-72
2023/01/11 04:19:01;;;;;;;73.55;9.38;;;;;;;;;;4884535;29;20131;-72
2023/01/11 04:21:28;;;;;;;75.55;8.68;;;;;;;;;;4884463;29;20079;-72
2023/01/11 04:23:54;;;;;;;64.43;7.82;;;;;;;;;;4884993;29;20448;-72
2023/01/11 04:26:20;;;;;;;58.35;6.95;;;;;;;;;;4886782;29;20092;-72
2023/01/11 04:28:46;;;;;;;65.93;7.18;;;;;;;;;;4903319;29;20106;-72
2023/01/11 04:31:12;;;;;;;40.80;5.15;;;;;;;;;;4887559;29;20095;-72
2023/01/11 04:33:38;;;;;;;52.08;7.57;;;;;;;;;;4887604;29;20066;-72
2023/01/11 04:36:05;;;;;;;45.78;5.13;;;;;;;;;;4902838;29;20051;-72
2023/01/11 04:38:32;;;;;;;52.67;6.47;;;10.10;99.90;;;;;;4902825;29;20052;-72
2023/01/11 04:43:43;;;;;;;35.33;5.43;;;;;;;;;;4902687;29;20489;-72
2023/01/11 04:46:09;;;;;;;49.67;5.57;;;;;;;;;;4918565;29;20059;-72
2023/01/11 04:48:38;;;;;;;49.20;5.82;;;10.00;99.90;;;;;;4887291;29;20111;-72
2023/01/11 04:51:07;;;;;;;56.65;6.85;;;10.00;99.90;;;;;;4903097;29;20457;-72
2023/01/11 04:53:34;;;;;;;67.03;7.43;;;;;;;;;;4902575;29;20040;-71
2023/01/11 04:56:01;;;;;;;51.30;7.43;;;9.90;99.90;;;;;;4902617;29;20112;-73
2023/01/11 04:58:29;;;;;;;95.93;10.40;;;10.20;99.90;;;;;;4902229;29;20044;-72
2023/01/11 05:00:55;;;;;;;62.30;6.05;;;;;;;;;;4902476;29;20122;-72
2023/01/11 05:03:21;;;;;;;56.70;6.50;;;;;;;;;;4902448;29;20048;-72
2023/01/11 05:05:58;;;;;;;59.42;6.85;;;;;;;;;;4902367;29;20055;-72
2023/01/11 05:08:24;;;;;;;71.72;8.45;;;;;;;;;;4902278;29;20040;-71
2023/01/11 05:10:55;;;;;;;54.00;6.47;;;10.00;99.90;;;;;;4886616;29;20401;-70
2023/01/11 05:13:40;;;;;;;66.43;8.32;;;;;;;;;;4902306;29;20052;-71
2023/01/11 05:16:26;;;;;;;59.95;7.70;;;;;;;;;;4902180;29;20071;-71
2023/01/11 05:18:57;;;;;;;52.83;6.00;;;10.20;99.90;;;;;;4902191;29;20047;-72
2023/01/11 05:21:31;;;;;;;57.13;6.38;;;;;;;;;;4900147;29;20055;-72
2023/01/11 05:23:59;;;;;;;43.97;5.50;;;9.80;99.90;;;;;;4901887;29;20123;-72
2023/01/11 05:26:28;;;;;;;49.58;6.32;;;10.10;99.90;;;;;;4901991;29;20051;-72
2023/01/11 05:28:56;;;;;;;39.55;5.78;;;;;;;;;;4901999;29;20047;-72
2023/01/11 05:31:22;;;;;;;47.05;4.97;;;;;;;;;;4886267;29;20036;-72
2023/01/11 05:33:48;;;;;;;41.38;7.55;;;;;;;;;;4902119;29;20040;-72
2023/01/11 05:36:16;;;;;;;50.58;6.15;;;;;;;;;;4901952;29;20044;-72
2023/01/11 05:38:42;;;;;;;47.20;6.88;;;;;;;;;;4902071;29;20063;-72
2023/01/11 05:41:10;;;;;;;39.00;4.90;;;;;;;;;;4901839;29;20054;-72
2023/01/11 05:45:27;;;;;;;54.78;7.32;;;9.90;99.90;;;;;;4901606;29;20477;-72
2023/01/11 05:46:22;;;;;;;44.03;6.75;;;;;;;;;;4901487;29;20444;-72
2023/01/11 05:48:49;;;;;;;47.70;5.53;;;;;;;;;;4901671;29;20123;-72
2023/01/11 05:51:15;;;;;;;42.47;5.45;;;;;;;;;;4901336;29;20197;-72
2023/01/11 05:53:41;;;;;;;53.22;7.07;;;;;;;;;;4901282;29;20457;-72
2023/01/11 05:56:07;;;;;;;49.20;4.65;;;;;;;;;;4901367;29;20040;-72
2023/01/11 05:58:33;;;;;;;41.35;4.63;;;;;;;;;;4917084;29;20493;-72
2023/01/11 06:00:59;;;;;;;69.43;7.45;;;;;;;;;;4901475;29;20100;-72
2023/01/11 06:03:27;;;;;;;56.53;5.53;;;;;;;;;;4901189;29;20052;-72
2023/01/11 06:05:53;;;;;;;41.03;5.90;;;;;;;;;;4901284;29;20052;-71
2023/01/11 06:08:19;;;;;;;54.47;7.30;;;;;;;;;;4901059;29;20504;-72
2023/01/11 06:10:55;;;;;;;61.35;6.32;;;;;;;;;;4900462;29;20061;-71
2023/01/11 06:13:27;;;;;;;60.17;5.20;;;9.80;99.90;;;;;;4900984;29;20055;-77
2023/01/11 06:15:53;;;;;;;55.55;7.13;;;;;;;;;;4901252;29;20059;-77
2023/01/11 06:18:19;;;;;;;49.17;5.38;;;;;;;;;;4901215;29;20476;-77
2023/01/11 06:20:49;;;;;;;65.82;8.48;;;;;;;;;;4901282;29;20508;-77
2023/01/11 06:23:15;;;;;;;40.58;4.10;;;;;;;;;;4901090;29;20044;-76
2023/01/11 06:25:41;;;;;;;29.52;3.45;;;;;;;;;;4901247;29;20099;-77
2023/01/11 06:28:07;;;;;;;29.40;3.25;;;;;;;;;;4900466;29;20064;-77
2023/01/11 06:30:33;;;;;;;45.92;4.65;;;;;;;;;;4900814;29;20123;-77
2023/01/11 06:33:04;;;;;;;29.77;4.68;;;;;;;;;;4869758;29;20091;-77
2023/01/11 06:35:40;;;;;;;40.22;5.85;;;9.70;99.90;;;;;;4901126;29;20062;-77
2023/01/11 06:38:07;;;;;;;56.08;7.25;;;;;;;;;;4900563;29;20052;-77
2023/01/11 06:40:33;;;;;;;41.78;4.53;;;;;;;;;;4900536;29;20043;-77
2023/01/11 06:42:59;;;;;;;29.40;3.30;;;;;;;;;;4900552;29;20044;-77
2023/01/11 06:45:25;;;;;;;36.22;4.55;;;;;;;;;;4900654;29;20111;-77
2023/01/11 06:47:51;;;;;;;45.40;4.13;;;;;;;;;;4900318;29;20050;-77
2023/01/11 06:50:18;;;;;;;39.53;5.72;;;;;;;;;;4900716;29;20044;-77
2023/01/11 06:52:55;;;;;;;43.47;6.57;;;9.50;99.90;;;;;;4900751;29;20080;-77
2023/01/11 06:55:22;;;;;;;35.45;6.30;;;9.50;99.90;;;;;;4900656;29;20103;-77
2023/01/11 06:57:48;;;;;;;41.30;4.88;;;;;;;;;;4900365;29;20043;-77
2023/01/11 07:00:14;;;;;;;35.05;3.28;;;;;;;;;;4884775;29;20056;-77
2023/01/11 07:02:41;;;;;;;29.30;3.40;;;;;;;;;;4900411;29;20052;-77
2023/01/11 07:05:07;;;;;;;41.22;6.07;;;;;;;;;;4900653;29;20114;-77
2023/01/11 07:07:33;;;;;;;28.70;3.80;;;;;;;;;;4880985;29;20052;-78
2023/01/11 07:09:59;;;;;;;34.92;3.20;;;;;;;;;;4881578;29;20049;-77
2023/01/11 07:12:25;;;;;;;37.67;5.90;;;;;;;;;;4878876;29;20144;-77
2023/01/11 07:14:51;;;;;;;29.00;3.80;;;;;;;;;;4881124;29;20076;-77
2023/01/11 07:17:17;;;;;;;40.03;4.07;;;;;;;;;;4865108;29;20059;-77
2023/01/11 07:19:43;;;;;;;29.92;3.45;;;;;;;;;;4881429;29;20044;-77
2023/01/11 07:22:09;;;;;;;27.88;4.10;;;;;;;;;;4881360;29;20045;-77
2023/01/11 07:24:35;;;;;;;21.13;3.25;;;;;;;;;;4881666;29;20429;-77
2023/01/11 07:27:01;;;;;;;38.42;4.85;;;;;;;;;;4888975;29;20040;-77
2023/01/11 07:29:28;;;;;;;25.80;3.92;;;;;;;;;;4899932;29;20096;-77
2023/01/11 07:31:54;;;;;;;20.88;4.05;;;;;;;;;;4916746;29;20043;-77
2023/01/11 07:34:20;;;;;;;24.65;4.35;;;;;;;;;;4899750;29;20132;-77
2023/01/11 07:36:46;;;;;;;19.25;2.85;;;;;;;;;;4899882;29;20056;-77
2023/01/11 07:39:12;;;;;;;31.85;4.82;;;;;;;;;;4899847;29;20050;-77
2023/01/11 07:44:23;;;;;;;20.95;3.58;;;;;;;;;;4894176;29;20095;-76
2023/01/11 07:46:49;;;;;;;21.67;3.53;;;;;;;;;;4899665;29;20537;-77
2023/01/11 07:49:15;;;;;;;27.63;4.07;;;;;;;;;;4898176;29;20128;-77
2023/01/11 07:51:41;;;;;;;29.33;3.30;;;;;;;;;;4899709;29;20072;-77
2023/01/11 07:54:07;;;;;;;22.90;3.15;;;;;;;;;;4916540;29;20528;-77
2023/01/11 07:56:33;;;;;;;37.22;4.07;;;;;;;;;;4916844;29;20050;-77
2023/01/11 07:58:59;;;;;;;29.35;3.83;;;;;;;;;;4899579;29;20059;-77
2023/01/11 08:01:25;;;;;;;34.30;5.00;;;;;;;;;;4899650;29;20083;-77
2023/01/11 08:03:51;;;;;;;37.97;4.30;;;;;;;;;;4899759;29;20048;-77
2023/01/11 08:06:17;;;;;;;31.13;4.60;;;;;;;;;;4899650;29;20183;-77
2023/01/11 08:08:44;;;;;;;26.00;3.92;;;;;;;;;;4899733;29;20040;-77
2023/01/11 08:16:41;;;;;;;36.13;4.88;;;;;;;;;;4899566;29;20056;-77
2023/01/11 08:19:07;;;;;;;21.30;3.95;;;;;;;;;;4894678;29;20055;-77
2023/01/11 08:21:33;;;;;;;36.40;4.05;;;;;;;;;;4898965;29;20444;-77
2023/01/11 08:23:59;;;;;;;25.45;4.03;;;;;;;;;;4884094;29;20044;-77
2023/01/11 08:26:26;;;;;;;34.42;5.35;;;;;;;;;;4883817;29;20424;-77
2023/01/11 08:28:53;;;;;;;26.02;5.15;;;9.00;99.90;;;;;;4899482;29;20555;-77
2023/01/11 08:31:19;;;;;;;23.02;3.25;;;;;;;;;;4883852;29;20044;-77
2023/01/11 08:33:45;;;;;;;32.30;5.28;;;;;;;;;;4900215;29;20186;-77
2023/01/11 08:36:12;;;;;;;32.63;4.65;;;;;;;;;;4885876;29;20055;-77
2023/01/11 08:38:38;;;;;;;41.58;6.10;;;;;;;;;;4902643;29;20146;-77
2023/01/11 08:41:09;;;;;;;36.88;3.83;;;;;;;;;;4902982;29;20131;-77
2023/01/11 08:43:38;;;;;;;27.80;4.30;;;;;;;;;;4887416;29;20044;-77
2023/01/11 08:46:05;;;;;;;33.42;4.70;;;;;;;;;;4871953;29;20048;-78
2023/01/11 08:48:31;;;;;;;36.28;5.15;;;;;;;;;;4887170;29;20062;-77
2023/01/11 08:50:57;;;;;;;40.40;5.97;;;;;;;;;;4903444;29;20163;-78
2023/01/11 08:53:23;;;;;;;28.67;4.70;;;;;;;;;;4903184;29;20043;-77
2023/01/11 08:55:50;;;;;;;37.40;5.15;;;8.80;99.90;;;;;;4903018;29;20048;-77
2023/01/11 08:58:16;;;;;;;36.47;5.07;;;;;;;;;;4902730;29;20055;-77
2023/01/11 09:00:42;;;;;;;38.35;6.50;;;;;;;;;;4902819;29;20051;-77
2023/01/11 09:03:10;;;;;;;30.20;3.60;;;;;;;;;;4903030;29;20048;-77
2023/01/11 09:05:37;;;;;;;30.67;3.88;;;;;;;;;;4903162;29;20481;-78
2023/01/11 09:08:03;;;;;;;41.13;5.07;;;;;;;;;;4903357;29;20094;-78
2023/01/11 09:10:29;;;;;;;30.83;3.60;;;;;;;;;;4902290;29;20060;-78
2023/01/11 09:12:56;;;;;;;22.92;3.60;;;;;;;;;;4902674;29;20048;-78
2023/01/11 09:15:23;;;;;;;24.40;3.78;;;;;;;;;;4903468;29;20044;-77
2023/01/11 09:17:49;;;;;;;23.50;3.47;;;;;;;;;;4903668;29;20137;-77
2023/01/11 09:20:15;;;;;;;33.83;4.30;;;;;;;;;;4903451;29;20107;-77
2023/01/11 09:22:45;;;;;;;28.88;4.28;;;8.70;99.90;;;;;;4887300;29;20559;-78
2023/01/11 09:25:12;;;;;;;27.00;3.92;;;;;;;;;;4919288;29;20433;-78
2023/01/11 09:27:38;;;;;;;28.40;3.33;;;;;;;;;;4886801;29;20139;-78
2023/01/11 09:30:04;;;;;;;19.88;3.63;;;;;;;;;;4886952;29;20055;-78
2023/01/11 09:32:30;;;;;;;28.92;3.17;;;;;;;;;;4903033;29;20445;-77
2023/01/11 09:34:58;;;;;;;37.72;5.80;;;;;;;;;;4871293;29;20119;-77
2023/01/11 09:37:24;;;;;;;18.88;3.80;;;;;;;;;;4902667;29;20044;-78
2023/01/11 09:39:51;;;;;;;15.52;3.35;;;;;;;;;;4871186;29;20051;-78
2023/01/11 09:42:17;;;;;;;33.17;6.97;;;;;;;;;;4902128;29;20048;-78
2023/01/11 09:44:55;;;;;;;18.52;3.42;;;9.00;99.90;;;;;;4885263;29;20493;-78
2023/01/11 09:47:39;;;;;;;23.60;3.63;;;8.90;99.90;;;;;;4901927;29;20048;-78
2023/01/11 09:50:23;;;;;;;22.60;3.38;;;9.10;99.90;;;;;;4886478;29;20135;-78
2023/01/11 09:52:56;;;;;;;24.65;3.45;;;9.10;99.90;;;;;;4902007;29;20139;-78
2023/01/11 09:55:36;;;;;;;32.10;3.13;;;9.20;99.90;;;;;;4901594;29;20048;-78
2023/01/11 09:58:29;;;;;;;38.63;4.63;;;9.20;99.90;;;;;;4901696;29;20051;-78
2023/01/11 10:00:59;;;;;;;35.35;3.90;;;;;;;;;;4899622;29;20179;-78
2023/01/11 10:03:42;;;;;;;30.13;4.45;;;9.30;99.90;;;;;;4901578;29;20044;-79
2023/01/11 10:06:13;;;;;;;;;;;9.20;99.90;;;;;;4901628;29;20051;-78
2023/01/11 10:08:44;;;;;;;36.47;5.88;;;9.40;99.90;;;;;;4901155;29;19923;-78
2023/01/11 10:11:15;;;;;;;32.33;3.30;;;;;;;;;;4875043;29;20075;-78
2023/01/11 10:13:51;;;;;;;33.13;3.08;;;;;;;;;;4900695;29;20042;-78
2023/01/11 10:16:37;;;;;;;43.47;4.72;;;;;;;;;;4900937;29;20075;-78
2023/01/11 10:19:12;;;;;;;34.83;4.72;;;;;;;;;;4894024;29;20064;-77
2023/01/11 10:21:49;;;;;;;30.52;3.58;;;;;;;;;;4900513;29;20394;-77
2023/01/11 10:24:28;;;;;;;36.10;4.20;;;9.60;99.90;;;;;;4885081;29;20047;-78
2023/01/11 10:26:57;;;;;;;42.55;4.30;;;9.40;99.90;;;;;;4900791;29;20044;-77
2023/01/11 10:29:48;;;;;;;28.42;4.07;;;9.50;99.90;;;;;;4917093;29;20043;-77
2023/01/11 10:32:38;;;;;;;31.80;3.53;;;;;;;;;;4900207;29;20044;-77
2023/01/11 10:35:57;;;;;;;45.63;3.75;;;9.40;99.90;;;;;;4900415;29;20040;-78
2023/01/11 10:41:24;;;;;;;33.72;4.15;;;;;;;;;;4884555;29;20382;-78
2023/01/11 10:44:18;;;;;;;31.33;3.85;;;9.60;99.90;;;;;;4900683;29;20633;-78
2023/01/11 10:46:49;;;;;;;32.55;3.65;;;;;;;;;;4899055;29;20056;-77
2023/01/11 10:49:27;;;;;;;30.75;5.57;;;;;;;;;;4900216;29;20125;-77
2023/01/11 10:51:59;;;;;;;38.10;4.25;;;;;;;;;;4899687;29;20040;-78
2023/01/11 10:54:30;;;;;;;40.60;4.22;;;9.60;99.90;;;;;;4900440;29;20052;-78
2023/01/11 10:57:19;;;;;;;45.10;5.63;;;9.60;99.90;;;;;;4917169;29;20094;-77
2023/01/11 10:59:47;;;;;;;42.13;3.42;;;;;;;;;;4900352;29;20052;-77
2023/01/11 11:02:28;;;;;;;40.88;4.55;;;;;;;;;;4899100;29;20079;-77
2023/01/11 11:05:09;;;;;;;41.10;5.72;;;;;;;;;;4885089;29;20385;-77
2023/01/11 11:07:59;;;;;;;41.03;5.18;;;9.90;99.90;;;;;;4881411;29;20053;-78
2023/01/11 11:10:43;;;;;;;38.33;4.68;;;;;;;;;;4869344;29;20048;-77
2023/01/11 11:13:12;;;;;;;37.95;5.32;;;;;;;;;;4915523;29;20043;-77
2023/01/11 11:15:49;;;;;;;33.97;4.72;;;9.80;99.90;;;;;;4899876;29;20396;-77
2023/01/11 11:18:15;;;;;;;26.90;3.78;;;;;;;;;;4916657;29;20378;-77
2023/01/11 11:20:43;;;;;;;36.40;4.32;;;;;;;;;;4917130;29;20544;-77
2023/01/11 11:23:13;;;;;;;39.33;4.63;;;;;;;;;;4901558;29;20401;-77
2023/01/11 11:25:41;;;;;;;45.92;4.25;;;;;;;;;;4899865;29;20040;-77
2023/01/11 11:28:26;;;;;;;37.17;5.65;;;9.90;99.90;;;;;;4899927;29;20051;-77
2023/01/11 11:30:56;;;;;;;42.83;5.47;;;10.10;99.90;;;;;;4899606;29;20132;-76
2023/01/11 11:33:30;;;;;;;47.15;5.13;;;;;;;;;;4899930;29;20115;-77
2023/01/11 11:36:03;;;;;;;39.15;4.95;;;10.10;99.90;;;;;;4881621;29;20096;-76
2023/01/11 11:38:35;;;;;;;39.55;5.03;;;10.00;99.90;;;;;;4881218;29;20127;-71
2023/01/11 11:41:01;;;;;;;41.28;4.53;;;;;;;;;;4887736;29;20452;-71
2023/01/11 11:43:27;;;;;;;38.00;4.10;;;;;;;;;;4899940;29;20084;-71
2023/01/11 11:46:04;;;;;;;42.33;5.32;;;;;;;;;;4884078;29;20092;-70
2023/01/11 11:48:34;;;;;;;43.63;5.80;;;10.30;99.90;;;;;;4899751;29;20044;-71
2023/01/11 11:51:03;;;;;;;21.65;3.45;;;10.40;99.90;;;;;;4899337;29;20040;-71
2023/01/11 11:53:34;;;;;;;40.58;3.70;;;;;;;;;;4899664;29;20051;-71
2023/01/11 11:56:27;;;;;;;34.95;4.32;;;;;;;;;;4899737;29;20044;-71
2023/01/11 11:58:56;;;;;;;43.55;3.70;;;10.40;99.90;;;;;;4895513;29;20500;-71
2023/01/11 12:01:38;;;;;;;23.05;4.03;;;;;;;;;;4899587;29;20048;-71
2023/01/11 12:04:18;;;;;;;33.15;3.75;;;;;;;;;;4899312;29;20151;-72
2023/01/11 12:07:16;;;;;;;34.03;4.47;;;10.10;99.90;;;;;;4899251;29;20135;-71
2023/01/11 12:09:55;;;;;;;44.60;4.45;;;10.00;99.90;;;;;;4857398;29;20058;-71
2023/01/11 12:12:22;;;;;;;45.22;5.35;;;;;;;;;;4903162;29;20052;-71
2023/01/11 12:15:19;;;;;;;33.05;3.70;;;;;;;;;;4887620;29;20043;-71
2023/01/11 12:17:46;;;;;;;29.95;3.83;;;10.20;99.90;;;;;;4903050;29;20397;-71
2023/01/11 12:20:21;;;;;;;36.35;4.60;;;;;;;;;;4903185;29;20414;-71
2023/01/11 12:22:48;;;;;;;38.20;4.03;;;;;;;;;;4885482;29;20072;-71
2023/01/11 12:25:14;;;;;;;47.20;5.25;;;;;;;;;;4902993;29;20484;-71
2023/01/11 12:27:58;;;;;;;38.80;4.10;;;;;;;;;;4902806;29;20048;-70
2023/01/11 12:30:37;;;;;;;58.63;5.05;;;;;;;;;;4902718;29;20072;-71
2023/01/11 12:33:11;;;;;;;42.80;5.05;;;9.90;99.90;;;;;;4887203;29;20048;-71
2023/01/11 12:35:49;;;;;;;60.22;5.80;;;10.10;99.90;;;;;;4902999;29;20047;-71
2023/01/11 12:38:34;;;;;;;39.20;4.25;;;10.10;99.90;;;;;;4903072;29;20043;-71
2023/01/11 12:41:13;;;;;;;48.17;4.85;;;;;;;;;;4887414;29;20056;-71
2023/01/11 12:43:57;;;;;;;37.20;4.43;;;9.90;99.90;;;;;;4902881;29;20048;-71
2023/01/11 12:46:30;;;;;;;38.15;4.55;;;;;;;;;;4883942;29;20049;-71
2023/01/11 12:49:15;;;;;;;35.25;5.30;;;;;;;;;;4883867;29;20103;-71
2023/01/11 12:51:41;;;;;;;40.40;5.18;;;;;;;;;;4891644;29;20422;-71
2023/01/11 12:54:12;;;;;;;60.28;6.55;;;10.00;99.90;;;;;;4887146;29;20095;-71
2023/01/11 12:56:54;;;;;;;49.05;4.65;;;;;;;;;;4902734;29;20397;-76
2023/01/11 12:59:29;;;;;;;50.58;5.45;;;;;;;;;;4902791;29;20084;-78
2023/01/11 13:02:28;;;;;;;55.58;7.80;;;9.80;99.90;;;;;;4886559;29;20065;-71
2023/01/11 13:05:12;;;;;;;46.90;5.50;;;;;;;;;;4886984;29;20102;-70
2023/01/11 13:07:55;;;;;;;48.65;7.70;;;9.90;99.90;;;;;;4897947;29;20051;-71
2023/01/11 13:10:34;;;;;;;56.17;5.95;;;;;;;;;;4902184;29;20060;-71
2023/01/11 13:13:50;;;;;;;49.25;5.13;;;10.20;99.90;;;;;;4901997;29;20416;-71
2023/01/11 13:16:34;;;;;;;46.58;5.18;;;10.10;99.90;;;;;;4858036;29;20111;-71
2023/01/11 13:19:11;;;;;;;46.45;5.57;;;;;;;;;;4901926;29;20587;-71
2023/01/11 13:21:51;;;;;;;51.28;6.18;;;9.90;99.90;;;;;;4901855;29;20374;-71
2023/01/11 13:24:25;;;;;;;46.92;5.65;;;;;;;;;;4902015;29;20048;-71
2023/01/11 13:26:53;;;;;;;51.47;6.53;;;9.90;99.90;;;;;;4886522;29;20056;-71
2023/01/11 13:29:30;;;;;;;60.15;4.40;;;;;;;;;;4902033;29;20036;-71
2023/01/11 13:32:02;;;;;;;47.38;5.80;;;;;;;;;;4901088;29;20087;-71
2023/01/11 13:34:54;;;;;;;44.40;5.88;;;;;;;;;;4901211;29;20054;-71
2023/01/11 13:37:26;;;;;;;39.83;3.80;;;;;;;;;;4876446;29;20052;-71
2023/01/11 13:39:59;;;;;;;45.08;5.85;;;;;;;;;;4901498;29;20075;-71
2023/01/11 13:42:35;;;;;;;49.25;5.60;;;10.10;99.90;;;;;;4877332;29;20055;-72
2023/01/11 13:45:36;;;;;;;52.78;5.00;;;10.20;99.90;;;;;;4885549;29;20043;-71
2023/01/11 13:48:25;;;;;;;42.80;5.93;;;10.00;99.90;;;;;;4900739;29;20048;-71
2023/01/11 13:50:57;;;;;;;47.20;5.63;;;;;;;;;;4899780;29;20390;-71
2023/01/11 13:54:01;;;;;;;55.58;7.15;;;10.00;99.90;;;;;;4899919;29;20544;-71
2023/01/11 13:56:34;;;;;;;35.00;4.47;;;10.00;99.90;;;;;;4883251;29;20051;-71
2023/01/11 13:59:03;;;;;;;46.88;6.72;;;;;;;;;;4885326;29;20099;-71
2023/01/11 14:01:46;;;;;;;58.97;6.60;;;;;;;;;;4898144;29;20120;-71
2023/01/11 14:04:21;;;;;;;41.58;4.95;;;9.70;99.90;;;;;;4898765;29;20040;-71
2023/01/11 14:06:59;;;;;;;44.78;5.25;;;;;;;;;;4882875;29;20111;-71
2023/01/11 14:09:58;;;;;;;47.65;5.38;;;;;;;;;;4900838;29;20486;-71
2023/01/11 14:12:41;;;;;;;50.22;4.63;;;10.10;99.90;;;;;;4850572;29;20400;-71
2023/01/11 14:15:19;;;;;;;59.40;5.55;;;;;;;;;;4898509;29;20048;-71
2023/01/11 14:17:54;;;;;;;68.90;6.88;;;;;;;;;;4898199;29;20051;-71
2023/01/11 14:20:41;;;;;;;43.40;5.32;;;9.90;99.90;;;;;;4900409;29;20354;-71
2023/01/11 14:23:11;;;;;;;32.53;4.20;;;;;;;;;;4898237;29;20044;-71
2023/01/11 14:26:24;;;;;;;56.25;5.60;;;10.00;99.90;;;;;;4900276;29;20044;-71
2023/01/11 14:29:15;;;;;;;50.47;5.10;;;10.10;99.90;;;;;;4898115;29;20162;-71
2023/01/11 14:32:29;;;;;;;53.30;4.45;;;10.10;99.90;;;;;;4899414;29;20036;-71
2023/01/11 14:34:55;;;;;;;50.28;6.50;;;;;;;;;;4834604;29;20125;-71
2023/01/11 14:37:22;;;;;;;53.03;6.25;;;;;;;;;;4900286;29;20055;-70
2023/01/11 14:40:07;;;;;;;46.20;6.63;;;;;;;;;;4899299;29;20052;-71
2023/01/11 14:42:33;;;;;;;43.00;5.18;;;;;;;;;;4883544;29;20048;-72
2023/01/11 14:45:12;;;;;;;33.80;4.97;;;;;;;;;;4899046;29;20496;-72
2023/01/11 14:47:45;;;;;;;52.92;5.63;;;;;;;;;;4898801;29;20122;-71
2023/01/11 14:50:39;;;;;;;44.60;7.43;;;;;;;;;;4898724;29;20198;-71
2023/01/11 14:53:08;;;;;;;49.13;5.28;;;;;;;;;;4849592;29;20397;-72
2023/01/11 14:55:45;;;;;;;52.92;6.32;;;9.50;99.90;;;;;;4898640;29;20043;-72
2023/01/11 14:58:15;;;;;;;60.35;7.93;;;;;;;;;;4897939;29;20048;-72